Terminal Aerodrome Forecast
Issued by NWS

Home | Current Version | Previous Version | Text Only | Print | Product List | Glossary Off
Versions: 1 2 3 4 5 6 7 8 9 10 11 12 13 14 15 16 17 18 19 20 21 22 23 24 25 26 27 28 29

642
FTUS43 KLOT 230855 AAA
TAFMDW
TAF AMD
KMDW 230855Z 2309/2406 VRB02KT P6SM FEW030 SCT050
     FM231500 28010KT P6SM SCT070
     FM240000 31007KT P6SM SCT150=

USA.gov is the U.S. government's official web portal to all federal, state and local government web resources and services.